createdAt,value
2019-03-21T00:00:05.116Z,12
2019-03-21T00:01:01.821Z,11
2019-03-21T00:02:02.105Z,13
2019-03-21T00:03:02.355Z,14
2019-03-21T00:04:01.716Z,14
2019-03-21T00:05:02.038Z,12
2019-03-21T00:06:02.233Z,12
2019-03-21T00:07:01.498Z,15
2019-03-21T00:08:01.721Z,9
2019-03-21T00:09:02.078Z,13
2019-03-21T00:10:02.359Z,11
2019-03-21T00:11:01.894Z,11
2019-03-21T00:12:02.120Z,11
2019-03-21T00:13:02.358Z,11
2019-03-21T00:14:06.950Z,14
2019-03-21T00:15:01.919Z,14
2019-03-21T00:16:02.216Z,13
2019-03-21T00:17:02.492Z,10
2019-03-21T00:18:01.662Z,12
2019-03-21T00:19:01.993Z,12
2019-03-21T00:20:02.255Z,12
2019-03-21T00:21:02.424Z,13
2019-03-21T00:22:01.585Z,9
2019-03-21T00:23:01.916Z,11
2019-03-21T00:24:02.205Z,11
2019-03-21T00:25:01.635Z,11
2019-03-21T00:26:01.867Z,11
2019-03-21T00:27:02.087Z,10
2019-03-21T00:28:02.366Z,10
2019-03-21T00:29:01.614Z,11
2019-03-21T00:30:01.916Z,12
2019-03-21T00:31:06.641Z,12
2019-03-21T00:32:02.363Z,10
2019-03-21T00:33:02.207Z,11
2019-03-21T00:34:01.542Z,9
2019-03-21T00:35:01.791Z,11
2019-03-21T00:36:01.996Z,9
2019-03-21T00:37:02.240Z,11
2019-03-21T00:38:01.490Z,10
2019-03-21T00:39:01.750Z,11
2019-03-21T00:40:02.085Z,11
2019-03-21T00:41:02.252Z,8
2019-03-21T00:42:02.334Z,8
2019-03-21T00:43:01.491Z,10
2019-03-21T00:44:01.752Z,8
2019-03-21T00:45:02.424Z,10
2019-03-21T00:46:01.716Z,11
2019-03-21T00:47:01.932Z,10
2019-03-21T00:48:02.148Z,11
2019-03-21T00:49:01.429Z,13
2019-03-21T00:50:01.709Z,8
2019-03-21T00:51:02.282Z,8
2019-03-21T00:52:01.429Z,9
2019-03-21T00:53:01.764Z,8
2019-03-21T00:54:02.000Z,12
2019-03-21T00:55:02.258Z,9
2019-03-21T00:56:01.612Z,12
2019-03-21T00:57:01.809Z,11
2019-03-21T00:58:02.124Z,9
2019-03-21T00:59:02.453Z,9
2019-03-21T01:00:03.277Z,12
2019-03-21T01:01:02.191Z,10
2019-03-21T01:02:01.656Z,7
2019-03-21T01:03:03.658Z,8
2019-03-21T01:04:01.917Z,8
2019-03-21T01:05:02.370Z,10
2019-03-21T01:06:01.613Z,7
2019-03-21T01:07:01.955Z,7
2019-03-21T01:08:02.202Z,9
2019-03-21T01:09:02.371Z,7
2019-03-21T01:10:01.688Z,7
2019-03-21T01:11:01.963Z,10
2019-03-21T01:12:02.201Z,7
2019-03-21T01:13:02.507Z,8
2019-03-21T01:14:01.716Z,8
2019-03-21T01:15:02.080Z,8
2019-03-21T01:16:02.258Z,8
2019-03-21T01:17:01.544Z,9
2019-03-21T01:18:01.689Z,10
2019-03-21T01:19:01.948Z,8
2019-03-21T01:20:02.275Z,9
2019-03-21T01:21:01.464Z,8
2019-03-21T01:22:01.817Z,8
2019-03-21T01:23:01.951Z,9
2019-03-21T01:24:02.272Z,9
2019-03-21T01:25:01.455Z,8
2019-03-21T01:26:01.926Z,8
2019-03-21T01:27:01.991Z,8
2019-03-21T01:28:02.411Z,10
2019-03-21T01:29:01.639Z,6
2019-03-21T01:30:01.894Z,6
2019-03-21T01:31:02.238Z,7
2019-03-21T01:32:02.431Z,8
2019-03-21T01:33:01.692Z,8
2019-03-21T01:34:01.991Z,6
2019-03-21T10:20:01.915Z,2
2019-03-21T10:21:02.020Z,1
2019-03-21T10:22:02.231Z,1
2019-03-21T10:23:01.429Z,2
2019-03-21T10:24:01.675Z,2
2019-03-21T10:25:01.977Z,3
2019-03-21T10:26:02.127Z,4
2019-03-21T10:27:02.407Z,3
2019-03-21T10:28:01.541Z,2
2019-03-21T10:29:01.807Z,3
2019-03-21T10:30:02.080Z,4
2019-03-21T10:31:02.351Z,2
2019-03-21T10:32:01.508Z,4
2019-03-21T10:33:01.806Z,3
2019-03-21T10:34:01.942Z,2
2019-03-21T10:35:02.153Z,3
2019-03-21T10:36:02.344Z,3
2019-03-21T10:37:01.557Z,3
2019-03-21T10:38:01.750Z,3
2019-03-21T10:39:01.877Z,3
2019-03-21T10:40:01.535Z,3
2019-03-21T10:41:01.706Z,2
2019-03-21T10:42:01.915Z,3
2019-03-21T10:43:01.799Z,4
2019-03-21T10:44:01.967Z,2
2019-03-21T10:45:02.239Z,3
2019-03-21T10:46:01.432Z,2
2019-03-21T10:47:01.699Z,3
2019-03-21T10:48:01.824Z,2
2019-03-21T10:49:02.078Z,3
2019-03-21T10:50:02.253Z,2
2019-03-21T10:51:01.475Z,2
2019-03-21T10:52:01.794Z,3
2019-03-21T10:53:01.886Z,3
2019-03-21T10:54:02.141Z,3
2019-03-21T10:55:02.212Z,3
2019-03-21T10:56:02.355Z,2
2019-03-21T10:57:01.681Z,3
2019-03-21T10:58:01.590Z,3
2019-03-21T10:59:01.789Z,4
2019-03-21T11:00:03.325Z,3
2019-03-21T11:01:02.177Z,2
2019-03-21T11:02:07.181Z,2
2019-03-21T11:03:01.596Z,2
2019-03-21T11:04:01.522Z,2
2019-03-21T11:05:01.676Z,3
2019-03-21T11:06:01.885Z,3
2019-03-21T11:07:02.196Z,2
2019-03-21T11:08:01.390Z,2
2019-03-21T11:09:01.806Z,3
2019-03-21T11:10:02.048Z,3
2019-03-21T11:11:02.273Z,2
2019-03-21T11:12:01.563Z,3
2019-03-21T11:13:01.770Z,5
2019-03-21T11:14:02.078Z,3
2019-03-21T11:15:02.162Z,3
2019-03-21T11:16:02.292Z,2
2019-03-21T11:17:01.525Z,3
2019-03-21T11:18:01.719Z,3
2019-03-21T11:19:01.860Z,3
2019-03-21T11:20:02.185Z,3
2019-03-21T11:21:02.394Z,3
2019-03-21T11:22:06.326Z,3
2019-03-21T11:23:01.874Z,2
2019-03-21T11:24:02.055Z,3
2019-03-21T11:25:02.312Z,3
2019-03-21T11:26:01.487Z,4
2019-03-21T11:27:01.707Z,3
2019-03-21T11:28:01.962Z,3
2019-03-21T11:29:02.150Z,3
2019-03-21T11:30:01.456Z,4
2019-03-21T11:31:01.609Z,3
2019-03-21T11:32:01.864Z,3
2019-03-21T11:33:02.018Z,4
2019-03-21T11:34:02.244Z,4
2019-03-21T11:35:01.428Z,4
2019-03-21T11:36:02.054Z,3
2019-03-21T11:37:02.336Z,3
2019-03-21T11:38:01.486Z,4
2019-03-21T11:39:01.780Z,5
2019-03-21T11:40:02.018Z,3
2019-03-21T11:41:02.259Z,3
2019-03-21T11:42:02.072Z,4
2019-03-21T11:43:02.136Z,2
2019-03-21T11:44:02.442Z,4
2019-03-21T11:45:01.611Z,5
2019-03-21T11:46:01.929Z,4
2019-03-21T11:47:02.067Z,3
2019-03-21T11:48:02.242Z,3
2019-03-21T11:49:01.466Z,5
2019-03-21T11:50:01.818Z,2
2019-03-21T11:51:01.920Z,4
2019-03-21T11:52:02.199Z,3
2019-03-21T11:53:02.344Z,3
2019-03-21T11:54:01.583Z,2
2019-03-21T11:55:01.824Z,4
2019-03-21T11:56:02.032Z,4
2019-03-21T11:57:02.299Z,3
2019-03-21T11:58:02.053Z,4
2019-03-21T11:59:02.141Z,3
2019-03-21T12:00:04.400Z,3
2019-03-21T12:01:02.275Z,4
2019-03-21T12:02:01.503Z,4
2019-03-21T12:03:04.153Z,4
2019-03-21T12:04:01.911Z,6
2019-03-21T12:05:02.083Z,4
2019-03-21T12:06:02.261Z,3
2019-03-21T12:07:01.489Z,4
2019-03-21T12:08:02.307Z,4
2019-03-21T12:09:01.475Z,5
2019-03-21T12:10:01.731Z,3
2019-03-21T12:11:01.969Z,2
2019-03-21T12:12:02.223Z,4
2019-03-21T12:13:02.417Z,3
2019-03-21T12:14:01.551Z,5
2019-03-21T12:15:01.820Z,4
2019-03-21T12:16:02.137Z,3
2019-03-21T12:17:02.348Z,3
2019-03-21T12:18:01.638Z,4
2019-03-21T12:19:01.761Z,2
2019-03-21T12:20:02.001Z,3
2019-03-21T12:21:02.251Z,3
2019-03-21T12:22:02.407Z,4
2019-03-21T12:23:01.656Z,4
2019-03-21T12:24:01.808Z,3
2019-03-21T12:25:02.026Z,4
2019-03-21T12:26:02.184Z,4
2019-03-21T12:27:01.440Z,3
2019-03-21T12:28:01.792Z,3
2019-03-21T12:29:01.823Z,4
2019-03-21T12:30:02.437Z,3
2019-03-21T12:31:01.659Z,3
2019-03-21T12:32:01.835Z,4
2019-03-21T12:33:02.040Z,4
2019-03-21T12:34:01.982Z,3
2019-03-21T12:35:02.264Z,5
2019-03-21T12:36:02.432Z,3
2019-03-21T12:37:01.780Z,4
2019-03-21T12:38:01.972Z,5
2019-03-21T12:39:02.253Z,4
2019-03-21T12:40:02.427Z,4
2019-03-21T12:41:02.355Z,3
2019-03-21T12:42:01.566Z,3
2019-03-21T12:43:01.756Z,3
2019-03-21T12:44:02.050Z,3
2019-03-21T12:45:02.331Z,4
2019-03-21T12:46:02.401Z,6
2019-03-21T12:47:01.611Z,5
2019-03-21T12:48:01.892Z,4
2019-03-21T12:49:02.091Z,4
2019-03-21T12:50:02.218Z,4
2019-03-21T12:51:02.405Z,4
2019-03-21T12:52:01.588Z,5
2019-03-21T12:53:01.779Z,5
2019-03-21T12:54:01.958Z,2
2019-03-21T12:55:02.210Z,4
2019-03-21T12:56:02.331Z,4
2019-03-21T12:57:01.594Z,3
2019-03-21T12:58:01.934Z,4
2019-03-21T12:59:02.103Z,4
2019-03-21T13:00:03.040Z,4
2019-03-21T13:01:01.852Z,5
2019-03-21T13:02:02.129Z,3
2019-03-21T13:03:02.313Z,4
2019-03-21T13:04:01.537Z,4
2019-03-21T13:05:01.757Z,4
2019-03-21T13:06:01.893Z,5
2019-03-21T13:07:02.033Z,3
2019-03-21T13:08:02.191Z,4
2019-03-21T13:09:01.436Z,4
2019-03-21T13:10:01.476Z,5
2019-03-21T13:11:01.641Z,3
2019-03-21T13:12:01.816Z,4
2019-03-21T13:13:02.134Z,4
2019-03-21T13:14:02.230Z,3
2019-03-21T13:15:01.460Z,4
2019-03-21T13:16:01.660Z,4
2019-03-21T13:17:01.933Z,4
2019-03-21T13:18:02.151Z,3
2019-03-21T13:19:02.252Z,4
2019-03-21T13:20:01.462Z,4
2019-03-21T13:21:01.512Z,3
2019-03-21T13:22:01.785Z,3
2019-03-21T13:23:02.055Z,3
2019-03-21T13:24:02.299Z,4
2019-03-21T13:25:01.542Z,5
2019-03-21T13:26:01.682Z,4
2019-03-21T13:27:01.962Z,3
2019-03-21T13:28:02.124Z,4
2019-03-21T13:29:02.301Z,3
2019-03-21T13:30:03.607Z,4
2019-03-21T13:31:01.640Z,3
2019-03-21T13:32:01.851Z,4
2019-03-21T13:33:02.041Z,5
2019-03-21T13:34:01.711Z,4
2019-03-21T13:35:01.966Z,4
2019-03-21T13:36:02.199Z,2
2019-03-21T13:37:01.454Z,4
2019-03-21T13:38:01.520Z,2
2019-03-21T13:39:01.679Z,2
2019-03-21T13:40:01.972Z,2
2019-03-21T13:41:02.054Z,3
2019-03-21T13:42:02.283Z,3
2019-03-21T13:43:01.517Z,3
2019-03-21T13:44:01.785Z,3
2019-03-21T13:45:02.017Z,3
2019-03-21T13:46:02.191Z,3
2019-03-21T13:47:02.432Z,3
2019-03-21T13:48:01.630Z,2
2019-03-21T13:49:01.824Z,4
2019-03-21T13:50:02.069Z,2
2019-03-21T13:51:02.351Z,3
2019-03-21T13:52:01.514Z,4
2019-03-21T13:53:06.463Z,3
2019-03-21T13:54:02.001Z,3
2019-03-21T13:55:02.240Z,3
2019-03-21T13:56:02.479Z,2
2019-03-21T13:57:01.661Z,3
2019-03-21T13:58:01.820Z,1
2019-03-21T13:59:02.106Z,3
2019-03-21T14:00:03.750Z,3
2019-03-21T14:01:01.644Z,2
2019-03-21T14:02:01.782Z,1
2019-03-21T14:03:02.014Z,4
2019-03-21T14:04:02.262Z,4
2019-03-21T14:05:02.463Z,2
2019-03-21T14:06:01.529Z,3
2019-03-21T14:07:01.759Z,3
2019-03-21T14:08:01.873Z,2
2019-03-21T14:09:02.131Z,2
2019-03-21T14:10:02.409Z,3
2019-03-21T14:11:01.577Z,1
2019-03-21T14:12:01.952Z,3
2019-03-21T14:13:02.195Z,1
2019-03-21T14:14:01.483Z,1
2019-03-21T14:15:01.758Z,5
2019-03-21T14:16:01.797Z,3
2019-03-21T14:17:01.917Z,4
2019-03-21T14:18:02.104Z,1
2019-03-21T14:19:01.982Z,3
2019-03-21T14:20:02.404Z,2
2019-03-21T14:21:01.455Z,3
2019-03-21T14:22:01.613Z,3
2019-03-21T14:23:01.850Z,3
2019-03-21T14:24:02.129Z,4
2019-03-21T14:25:01.576Z,3
2019-03-21T14:26:01.709Z,3
2019-03-21T14:27:01.982Z,1
2019-03-21T14:28:02.217Z,1
2019-03-21T14:29:12.297Z,2
2019-03-21T14:30:02.392Z,2
2019-03-21T14:31:01.863Z,2
2019-03-21T14:32:02.201Z,3
2019-03-21T14:33:02.119Z,2
2019-03-21T14:34:02.208Z,3
2019-03-21T14:35:01.499Z,1
2019-03-21T14:36:01.688Z,3
2019-03-21T14:37:01.742Z,3
2019-03-21T14:38:01.894Z,3
2019-03-21T14:39:02.151Z,3
2019-03-21T14:40:02.369Z,3
2019-03-21T14:41:01.546Z,3
2019-03-21T14:42:01.749Z,2
2019-03-21T14:43:01.958Z,2
2019-03-21T14:44:02.272Z,2
2019-03-21T14:45:02.403Z,3
2019-03-21T14:46:01.499Z,2
2019-03-21T14:47:01.916Z,4
2019-03-21T14:48:01.747Z,3
2019-03-21T14:49:01.938Z,2
2019-03-21T14:50:02.146Z,2
2019-03-21T14:51:02.355Z,3
2019-03-21T14:52:01.569Z,3
2019-03-21T14:53:01.773Z,3
2019-03-21T14:54:01.773Z,3
2019-03-21T14:55:01.658Z,2
2019-03-21T14:56:01.761Z,3
2019-03-21T14:57:02.095Z,2
2019-03-21T14:58:02.169Z,4
2019-03-21T14:59:01.398Z,2
2019-03-21T15:00:03.821Z,3
2019-03-21T15:01:01.559Z,3
2019-03-21T15:02:01.942Z,3
2019-03-21T15:03:02.097Z,2
2019-03-21T15:04:02.190Z,3
2019-03-21T15:05:01.510Z,3
2019-03-21T15:06:01.645Z,3
2019-03-21T15:07:01.811Z,3
2019-03-21T15:08:02.017Z,1
2019-03-21T15:09:02.163Z,3
2019-03-21T15:10:02.449Z,3
2019-03-21T15:11:01.666Z,3
2019-03-21T15:12:02.186Z,4
2019-03-21T15:13:02.192Z,3
2019-03-21T15:14:02.294Z,4
2019-03-21T15:15:01.689Z,4
2019-03-21T15:16:01.792Z,2
2019-03-21T15:17:02.017Z,4
2019-03-21T15:18:02.215Z,3
2019-03-21T15:19:02.439Z,2
2019-03-21T15:20:01.573Z,2
2019-03-21T15:21:01.817Z,4
2019-03-21T15:22:01.981Z,4
2019-03-21T15:23:01.408Z,2
2019-03-21T15:24:01.629Z,4
2019-03-21T15:25:02.062Z,1
2019-03-21T15:26:02.245Z,3
2019-03-21T15:27:01.420Z,3
2019-03-21T15:28:01.453Z,3
2019-03-21T15:29:01.633Z,3
2019-03-21T15:30:01.940Z,4
2019-03-21T15:31:02.017Z,3
2019-03-21T15:32:02.273Z,2
2019-03-21T15:33:02.413Z,4
2019-03-21T15:34:01.899Z,4
2019-03-21T15:35:02.099Z,3
2019-03-21T15:36:02.372Z,2
2019-03-21T15:37:01.695Z,3
2019-03-21T15:38:01.749Z,3
2019-03-21T15:39:02.097Z,3
2019-03-21T15:40:02.187Z,4
2019-03-21T15:41:02.457Z,3
2019-03-21T15:42:01.617Z,3
2019-03-21T15:43:01.858Z,4
2019-03-21T15:44:02.061Z,3
2019-03-21T15:45:20.468Z,3
2019-03-21T15:46:02.150Z,1
2019-03-21T15:47:02.318Z,3
2019-03-21T15:48:01.479Z,3
2019-03-21T15:49:01.820Z,5
2019-03-21T15:50:02.045Z,2
2019-03-21T15:51:04.842Z,4
2019-03-21T15:52:02.402Z,4
2019-03-21T15:53:01.656Z,2
2019-03-21T15:54:01.877Z,3
2019-03-21T15:55:02.265Z,2
2019-03-21T15:56:02.247Z,1
2019-03-21T15:57:01.461Z,4
2019-03-21T15:58:01.694Z,4
2019-03-21T15:59:01.936Z,4
2019-03-21T16:00:02.308Z,4
2019-03-21T16:01:02.429Z,3
2019-03-21T16:02:01.688Z,3
2019-03-21T16:03:01.902Z,4
2019-03-21T16:04:02.114Z,3
2019-03-21T16:05:02.367Z,3
2019-03-21T16:06:01.506Z,3
2019-03-21T16:07:01.820Z,4
2019-03-21T16:08:01.916Z,3
2019-03-21T16:09:02.132Z,4
2019-03-21T16:10:02.522Z,4
2019-03-21T16:11:01.597Z,2
2019-03-21T16:12:01.867Z,5
2019-03-21T16:13:02.094Z,4
2019-03-21T16:14:02.300Z,4
2019-03-21T16:15:01.572Z,2
2019-03-21T16:16:01.763Z,3
2019-03-21T16:17:01.968Z,3
2019-03-21T16:18:02.281Z,4
2019-03-21T16:19:02.420Z,3
2019-03-21T16:20:01.796Z,3
2019-03-21T16:21:01.884Z,3
2019-03-21T16:22:02.175Z,4
2019-03-21T16:23:02.382Z,3
2019-03-21T16:24:05.536Z,4
2019-03-21T16:25:01.778Z,4
2019-03-21T16:26:02.101Z,3
2019-03-21T16:27:02.000Z,3
2019-03-21T16:28:01.951Z,3
2019-03-21T16:29:02.037Z,3
2019-03-21T16:30:02.340Z,4
2019-03-21T16:31:01.471Z,2
2019-03-21T16:32:02.515Z,2
2019-03-21T16:33:01.584Z,4
2019-03-21T16:34:01.855Z,4
2019-03-21T16:35:02.158Z,3
2019-03-21T16:36:02.364Z,3
2019-03-21T16:37:01.514Z,2
2019-03-21T16:38:01.746Z,3
2019-03-21T16:39:01.894Z,4
2019-03-21T16:40:02.152Z,4
2019-03-21T16:41:02.429Z,3
2019-03-21T16:42:01.611Z,5
2019-03-21T16:43:01.905Z,5
2019-03-21T16:44:01.935Z,4
2019-03-21T16:45:02.342Z,4
2019-03-21T16:46:01.546Z,3
2019-03-21T16:47:01.671Z,5
2019-03-21T16:48:01.795Z,4
2019-03-21T16:49:02.027Z,4
2019-03-21T16:50:02.253Z,4
2019-03-21T16:51:03.038Z,4
2019-03-21T16:52:01.790Z,2
2019-03-21T16:53:01.970Z,4
2019-03-21T16:54:02.211Z,5
2019-03-21T16:55:02.455Z,5
2019-03-21T16:56:01.599Z,3
2019-03-21T16:57:01.871Z,4
2019-03-21T16:58:02.106Z,3
2019-03-21T16:59:02.352Z,6
2019-03-21T17:00:11.391Z,4
2019-03-21T17:01:02.172Z,3
2019-03-21T17:02:01.508Z,3
2019-03-21T17:03:01.672Z,5
2019-03-21T17:04:01.923Z,4
2019-03-21T17:05:02.209Z,4
2019-03-21T17:06:02.402Z,3
2019-03-21T17:07:01.702Z,4
2019-03-21T17:08:11.074Z,3
2019-03-21T17:09:01.949Z,5
2019-03-21T17:10:02.155Z,4
2019-03-21T17:11:02.477Z,4
2019-03-21T17:12:01.665Z,4
2019-03-21T17:13:04.514Z,4
2019-03-21T17:14:02.040Z,4
2019-03-21T17:15:02.273Z,5
2019-03-21T17:16:01.499Z,3
2019-03-21T17:17:01.824Z,3
2019-03-21T17:18:02.067Z,4
2019-03-21T17:19:01.780Z,4
2019-03-21T17:20:03.757Z,5
2019-03-21T17:21:02.292Z,2
2019-03-21T17:22:02.529Z,4
2019-03-21T17:23:01.508Z,4
2019-03-21T17:24:01.762Z,4
2019-03-21T17:25:02.072Z,4
2019-03-21T17:26:02.249Z,4
2019-03-21T17:27:01.525Z,5
2019-03-21T17:28:01.668Z,4
2019-03-21T17:29:01.983Z,3
2019-03-21T17:30:02.179Z,4
2019-03-21T17:31:02.290Z,5
2019-03-21T17:32:01.588Z,4
2019-03-21T17:33:01.826Z,4
2019-03-21T17:34:04.123Z,6
2019-03-21T17:35:02.329Z,4
2019-03-21T17:36:01.598Z,4
2019-03-21T17:37:01.779Z,5
2019-03-21T17:38:01.941Z,5
2019-03-21T17:39:02.151Z,5
2019-03-21T17:40:01.534Z,5
2019-03-21T17:41:01.713Z,5
2019-03-21T17:42:01.915Z,3
2019-03-21T17:43:02.109Z,3
2019-03-21T17:44:02.396Z,4
2019-03-21T17:45:01.662Z,5
2019-03-21T17:46:01.929Z,4
2019-03-21T17:47:02.081Z,4
2019-03-21T17:48:02.332Z,5
2019-03-21T17:49:02.126Z,4
2019-03-21T17:50:02.462Z,4
2019-03-21T17:51:02.519Z,6
2019-03-21T17:52:01.574Z,5
2019-03-21T17:53:01.809Z,6
2019-03-21T17:54:02.112Z,6
2019-03-21T17:55:02.286Z,6
2019-03-21T17:56:01.485Z,6
2019-03-21T17:57:01.705Z,6
2019-03-21T17:58:02.008Z,6
2019-03-21T17:59:02.172Z,7
2019-03-21T18:00:04.136Z,5
2019-03-21T18:01:02.009Z,5
2019-03-21T18:02:02.087Z,5
2019-03-21T18:03:02.360Z,6
2019-03-21T18:04:01.570Z,7
2019-03-21T18:05:01.795Z,7
2019-03-21T18:06:01.920Z,5
2019-03-21T18:07:02.111Z,7
2019-03-21T18:08:02.426Z,7
2019-03-21T18:09:02.285Z,7
2019-03-21T18:10:01.532Z,8
2019-03-21T18:11:01.688Z,7
2019-03-21T18:12:01.948Z,7
2019-03-21T18:13:02.230Z,7
2019-03-21T18:14:02.510Z,6
2019-03-21T18:15:01.758Z,7
2019-03-21T18:16:01.950Z,7
2019-03-21T18:17:02.115Z,6
2019-03-21T18:18:02.450Z,7
2019-03-21T18:19:01.560Z,8
2019-03-21T18:20:01.811Z,7
2019-03-21T18:21:01.979Z,6
2019-03-21T18:22:02.201Z,6
2019-03-21T18:23:01.500Z,7
2019-03-21T18:24:01.776Z,8
2019-03-21T18:25:01.989Z,8
2019-03-21T18:26:02.133Z,9
2019-03-21T18:27:02.322Z,7
2019-03-21T18:28:01.640Z,7
2019-03-21T18:29:01.712Z,7
2019-03-21T18:30:02.035Z,8
2019-03-21T18:31:02.300Z,6
2019-03-21T18:32:01.468Z,8
2019-03-21T18:33:01.751Z,8
2019-03-21T18:34:01.952Z,7
2019-03-21T18:35:02.185Z,7
2019-03-21T18:36:02.405Z,9
2019-03-21T18:37:01.649Z,10
2019-03-21T18:38:01.988Z,8
2019-03-21T18:39:02.076Z,9
2019-03-21T18:40:02.366Z,10
2019-03-21T18:41:01.534Z,8
2019-03-21T18:42:01.700Z,10
2019-03-21T18:43:01.927Z,9
2019-03-21T18:44:02.129Z,11
2019-03-21T18:45:02.161Z,16
2019-03-21T18:46:02.274Z,15
2019-03-21T18:47:01.457Z,13
2019-03-21T18:48:01.687Z,13
2019-03-21T18:49:01.921Z,16
2019-03-21T18:50:02.151Z,16
2019-03-21T18:51:02.329Z,16
2019-03-21T18:52:01.580Z,12
2019-03-21T18:53:01.917Z,15
2019-03-21T18:54:02.056Z,14
2019-03-21T18:55:06.671Z,14
2019-03-21T18:56:01.536Z,14
2019-03-21T18:57:01.821Z,12
2019-03-21T18:58:01.980Z,12
2019-03-21T18:59:02.139Z,15
2019-03-21T19:00:03.549Z,12
2019-03-21T19:01:01.454Z,10
2019-03-21T19:02:01.669Z,12
2019-03-21T19:03:01.899Z,14
2019-03-21T19:04:02.170Z,13
2019-03-21T19:05:02.376Z,14
2019-03-21T19:06:01.626Z,13
2019-03-21T19:07:02.017Z,14
2019-03-21T19:08:02.211Z,13
2019-03-21T19:09:02.361Z,14
2019-03-21T19:10:01.578Z,11
2019-03-21T19:11:01.802Z,12
2019-03-21T19:12:02.141Z,12
2019-03-21T19:13:02.256Z,13
2019-03-21T19:14:02.464Z,12
2019-03-21T19:15:01.632Z,11
2019-03-21T19:16:01.811Z,11
2019-03-21T19:17:02.283Z,11
2019-03-21T19:18:02.244Z,11
2019-03-21T19:19:01.556Z,11
2019-03-21T19:20:01.747Z,12
2019-03-21T19:21:01.986Z,12
2019-03-21T19:22:02.275Z,10
2019-03-21T19:23:01.464Z,11
2019-03-21T19:24:01.683Z,10
2019-03-21T19:25:01.945Z,10
2019-03-21T19:26:02.128Z,11
2019-03-21T19:27:02.235Z,11
2019-03-21T19:28:01.481Z,8
2019-03-21T19:29:01.737Z,11
2019-03-21T19:30:02.104Z,10
2019-03-21T19:31:02.046Z,10
2019-03-21T19:32:02.076Z,10
2019-03-21T19:33:02.280Z,8
2019-03-21T19:34:01.513Z,8
2019-03-21T19:35:01.722Z,9
2019-03-21T19:36:02.095Z,8
2019-03-21T19:37:02.150Z,8
2019-03-21T19:38:02.361Z,9
2019-03-21T19:39:01.670Z,11
2019-03-21T19:40:02.025Z,8
2019-03-21T19:41:02.146Z,10
2019-03-21T19:42:02.313Z,10
2019-03-21T19:43:02.323Z,9
2019-03-21T19:44:01.510Z,8
2019-03-21T19:45:02.362Z,8
2019-03-21T19:46:02.108Z,6
2019-03-21T19:47:02.226Z,9
2019-03-21T19:48:01.508Z,8
2019-03-21T19:49:01.734Z,10
2019-03-21T19:50:02.024Z,7
2019-03-21T19:51:02.508Z,9
2019-03-21T19:52:01.421Z,9
2019-03-21T19:53:01.667Z,7
2019-03-21T19:54:01.995Z,9
2019-03-21T19:55:02.341Z,7
2019-03-21T19:56:08.549Z,7
2019-03-21T19:57:01.706Z,7
2019-03-21T19:58:02.001Z,8
2019-03-21T19:59:02.220Z,9
2019-03-21T20:00:03.120Z,7
2019-03-21T20:01:02.055Z,8
2019-03-21T20:02:02.313Z,10
2019-03-21T20:03:01.581Z,8
2019-03-21T20:04:01.697Z,9
2019-03-21T20:05:02.056Z,7
2019-03-21T20:06:02.188Z,8
2019-03-21T20:07:02.481Z,10
2019-03-21T20:08:01.673Z,5
2019-03-21T20:09:01.806Z,6
2019-03-21T20:10:02.157Z,8
2019-03-21T20:11:02.239Z,8
2019-03-21T20:12:01.549Z,6
2019-03-21T20:13:01.685Z,7
2019-03-21T20:14:04.000Z,6
2019-03-21T20:15:02.131Z,8
2019-03-21T20:16:02.408Z,7
2019-03-21T20:17:01.557Z,7
2019-03-21T20:18:01.853Z,9
2019-03-21T20:19:02.075Z,7
2019-03-21T20:20:02.340Z,8
2019-03-21T20:21:01.536Z,8
2019-03-21T20:22:01.800Z,7
2019-03-21T20:23:02.038Z,7
2019-03-21T20:24:02.169Z,8
2019-03-21T20:25:01.501Z,7
2019-03-21T20:26:01.665Z,7
2019-03-21T20:27:01.973Z,9
2019-03-21T20:28:02.120Z,7
2019-03-21T20:29:02.289Z,11
2019-03-21T20:30:01.550Z,17
2019-03-21T20:31:01.787Z,25
2019-03-21T20:32:01.987Z,39
2019-03-21T20:33:01.836Z,39
2019-03-21T20:34:02.040Z,36
2019-03-21T20:35:02.345Z,33
2019-03-21T20:36:01.599Z,29
2019-03-21T20:37:01.847Z,31
2019-03-21T20:38:02.132Z,32
2019-03-21T20:39:02.301Z,32
2019-03-21T20:40:01.513Z,35
2019-03-21T20:41:01.714Z,31
2019-03-21T20:42:01.966Z,34
2019-03-21T20:43:02.213Z,33
2019-03-21T20:44:01.543Z,32
2019-03-21T20:45:01.729Z,33
2019-03-21T20:46:01.876Z,35
2019-03-21T20:47:02.140Z,32
2019-03-21T20:48:02.226Z,33
2019-03-21T20:49:01.492Z,33
2019-03-21T20:50:01.711Z,33
2019-03-21T20:51:01.895Z,36
2019-03-21T20:52:02.189Z,36
2019-03-21T20:53:02.379Z,30
2019-03-21T20:54:01.637Z,32
2019-03-21T20:55:01.878Z,32
2019-03-21T20:56:01.891Z,35
2019-03-21T20:57:02.040Z,33
2019-03-21T20:58:02.330Z,32
2019-03-21T20:59:01.494Z,33
2019-03-21T21:00:02.184Z,31
2019-03-21T21:01:02.036Z,36
2019-03-21T21:02:03.132Z,30
2019-03-21T21:03:02.557Z,30
2019-03-21T21:04:01.656Z,31
2019-03-21T21:05:01.872Z,31
2019-03-21T21:06:02.080Z,31
2019-03-21T21:07:02.241Z,30
2019-03-21T21:08:01.578Z,31
2019-03-21T21:09:01.846Z,32
2019-03-21T21:10:02.032Z,30
2019-03-21T21:11:02.383Z,31
2019-03-21T21:12:01.466Z,32
2019-03-21T21:13:01.697Z,32
2019-03-21T21:14:01.899Z,30
2019-03-21T21:15:02.226Z,28
2019-03-21T21:16:02.398Z,32
2019-03-21T21:17:01.563Z,29
2019-03-21T21:18:01.895Z,28
2019-03-21T21:19:02.026Z,31
2019-03-21T21:20:02.318Z,30
2019-03-21T21:21:01.527Z,28
2019-03-21T21:22:01.799Z,28
2019-03-21T21:23:02.073Z,29
2019-03-21T21:24:02.334Z,29
2019-03-21T21:25:01.639Z,27
2019-03-21T21:26:05.765Z,29
2019-03-21T21:27:01.786Z,27
2019-03-21T21:28:02.054Z,26
2019-03-21T21:29:02.235Z,28
2019-03-21T21:30:02.549Z,27
2019-03-21T21:31:01.453Z,25
2019-03-21T21:32:01.642Z,26
2019-03-21T21:33:01.828Z,29
2019-03-21T21:34:02.142Z,29
2019-03-21T21:35:02.370Z,24
2019-03-21T21:36:01.575Z,26
2019-03-21T21:37:01.755Z,28
2019-03-21T21:38:02.037Z,30
2019-03-21T21:39:02.268Z,30
2019-03-21T21:40:01.599Z,27
2019-03-21T21:41:01.730Z,22
2019-03-21T21:42:01.986Z,23
2019-03-21T21:43:02.219Z,26
2019-03-21T21:44:02.343Z,25
2019-03-21T21:45:01.611Z,25
2019-03-21T21:46:01.829Z,24
2019-03-21T21:47:02.098Z,27
2019-03-21T21:48:02.253Z,25
2019-03-21T21:49:01.470Z,23
2019-03-21T21:50:01.809Z,24
2019-03-21T21:51:02.024Z,23
2019-03-21T21:52:02.191Z,26
2019-03-21T21:53:01.412Z,25
2019-03-21T21:54:01.603Z,22
2019-03-21T21:55:01.882Z,25
2019-03-21T21:56:02.056Z,24
2019-03-21T21:57:02.302Z,26
2019-03-21T21:58:01.512Z,21
2019-03-21T21:59:01.818Z,28
2019-03-21T22:00:04.991Z,24
2019-03-21T22:01:01.724Z,22
2019-03-21T22:02:01.934Z,26
2019-03-21T22:03:02.134Z,24
2019-03-21T22:04:04.892Z,24
2019-03-21T22:05:01.680Z,24
2019-03-21T22:06:01.885Z,22
2019-03-21T22:07:02.266Z,26
2019-03-21T22:08:02.337Z,23
2019-03-21T22:09:01.550Z,23
2019-03-21T22:10:01.834Z,22
2019-03-21T22:11:02.097Z,24
2019-03-21T22:12:02.300Z,24
2019-03-21T22:13:01.527Z,21
2019-03-21T22:14:01.716Z,20
2019-03-21T22:15:01.930Z,23
2019-03-21T22:16:01.943Z,22
2019-03-21T22:17:01.864Z,23
2019-03-21T22:18:02.166Z,23
2019-03-21T22:19:01.618Z,25
2019-03-21T22:20:01.818Z,23
2019-03-21T22:21:02.053Z,19
2019-03-21T22:22:02.353Z,22
2019-03-21T22:23:01.517Z,26
2019-03-21T22:24:01.713Z,20
2019-03-21T22:25:02.022Z,20
2019-03-21T22:26:02.175Z,22
2019-03-21T22:27:01.413Z,22
2019-03-21T22:28:01.665Z,20
2019-03-21T22:29:01.866Z,25
2019-03-21T22:30:04.218Z,24
2019-03-21T22:31:02.337Z,26
2019-03-21T22:32:01.576Z,24
2019-03-21T22:33:01.863Z,21
2019-03-21T22:34:01.968Z,23
2019-03-21T22:35:02.246Z,23
2019-03-21T22:36:01.456Z,22
2019-03-21T22:37:01.645Z,20
2019-03-21T22:38:01.969Z,22
2019-03-21T22:39:02.254Z,27
2019-03-21T22:40:02.375Z,23
2019-03-21T22:41:01.570Z,25
2019-03-21T22:42:01.849Z,19
2019-03-21T22:43:01.740Z,19
2019-03-21T22:44:01.599Z,22
2019-03-21T22:45:02.308Z,22
2019-03-21T22:46:01.556Z,21
2019-03-21T22:47:01.867Z,24
2019-03-21T22:48:01.431Z,21
2019-03-21T22:49:01.737Z,20
2019-03-21T22:50:01.926Z,24
2019-03-21T22:51:02.134Z,20
2019-03-21T22:52:02.432Z,20
2019-03-21T22:53:01.599Z,20
2019-03-21T22:54:01.827Z,23
2019-03-21T22:55:02.163Z,22
2019-03-21T22:56:02.403Z,21
2019-03-21T22:57:01.640Z,25
2019-03-21T22:58:01.939Z,20
2019-03-21T22:59:02.081Z,20
2019-03-21T23:00:07.006Z,17
2019-03-21T23:01:01.757Z,17
2019-03-21T23:02:01.961Z,22
2019-03-21T23:03:02.157Z,22
2019-03-21T23:04:02.938Z,19
2019-03-21T23:05:01.685Z,20
2019-03-21T23:06:01.928Z,20
2019-03-21T23:07:02.081Z,20
2019-03-21T23:08:02.283Z,26
2019-03-21T23:09:01.556Z,19
2019-03-21T23:10:01.705Z,22
2019-03-21T23:11:02.000Z,22
2019-03-21T23:12:02.285Z,19
2019-03-21T23:13:02.371Z,24
2019-03-21T23:14:01.626Z,21
2019-03-21T23:15:01.843Z,22
2019-03-21T23:16:02.144Z,24
2019-03-21T23:17:02.348Z,20
2019-03-21T23:18:01.525Z,23
2019-03-21T23:19:01.847Z,20
2019-03-21T23:20:02.106Z,21
2019-03-21T23:21:02.238Z,21